Time;durP1;ratioP1;P1;durP2;ratioP2;P2;SDS_P1;SDS_P2;PMS_P1;PMS_P2;Temp;Humidity;BMP_temperature;BMP_pressure;BME280_temperature;BME280_humidity;BME280_pressure;Samples;Min_cycle;Max_cycle;Signal;HPM_P1;HPM_P2
2023/03/28 00:01:52;;;;;;;1.73;1.60;;;;;;;2.85;100.00;63219.00;5033415;28;20277;-55
2023/03/28 00:04:21;;;;;;;1.40;1.30;;;;;;;2.81;100.00;63217.16;5033362;28;20210;-52
2023/03/28 00:06:48;;;;;;;1.67;1.40;;;;;;;2.76;100.00;63214.22;5032112;28;20194;-53
2023/03/28 00:09:13;;;;;;;1.60;1.50;;;;;;;2.84;100.00;63220.41;5032160;28;20206;-55
2023/03/28 00:11:38;;;;;;;1.50;1.40;;;;;;;2.70;100.00;63205.22;5033436;28;20726;-53
2023/03/28 00:14:07;;;;;;;1.23;1.13;;;;;;;2.75;100.00;63210.63;5033342;28;20556;-58
2023/03/28 00:16:38;;;;;;;2.93;1.07;;;;;;;2.61;100.00;63195.44;5033099;28;20189;-55
2023/03/28 00:19:13;;;;;;;1.00;1.00;;;;;;;2.46;100.00;63176.69;5033180;28;20202;-53
2023/03/28 00:21:41;;;;;;;1.23;1.13;;;;;;;2.38;100.00;63168.00;5033015;28;20213;-52
2023/03/28 00:24:12;;;;;;;1.23;1.00;;;;;;;2.29;100.00;63158.78;5033100;28;20245;-52
2023/03/28 00:26:38;;;;;;;1.53;1.30;;;;;;;2.35;100.00;63164.72;5033263;28;20186;-53
2023/03/28 00:29:07;;;;;;;1.30;1.13;;;;;;;2.31;100.00;63162.88;5033403;28;20280;-53
2023/03/28 00:31:36;;;;;;;3.77;1.17;;;;;;;2.29;100.00;63158.22;5032804;28;20195;-53
2023/03/28 00:34:03;;;;;;;1.03;1.03;;;;;;;2.27;100.00;63161.56;5032778;28;20772;-53
2023/03/28 00:36:31;;;;;;;2.97;0.90;;;;;;;2.18;100.00;63146.28;5033074;28;20186;-57
2023/03/28 00:39:00;;;;;;;1.77;1.67;;;;;;;2.23;100.00;63154.75;5032858;28;20218;-55
2023/03/28 00:41:29;;;;;;;1.20;1.13;;;;;;;2.14;99.99;63141.97;5032932;28;20220;-53
2023/03/28 00:43:56;;;;;;;1.40;1.30;;;;;;;1.94;100.00;63123.28;5032675;28;20222;-54
2023/03/28 00:46:30;;;;;;;1.50;1.40;;;;;;;2.01;100.00;63130.88;5032617;28;20719;-56
2023/03/28 00:49:01;;;;;;;1.63;1.53;;;;;;;1.96;100.00;63122.44;5032846;28;20222;-59
2023/03/28 00:51:30;;;;;;;1.67;1.57;;;;;;;1.84;100.00;63109.41;5032622;28;20252;-56
2023/03/28 00:53:59;;;;;;;1.90;1.77;;;;;;;1.92;100.00;63120.56;5032523;28;20214;-57
2023/03/28 00:56:28;;;;;;;3.00;1.47;;;;;;;1.72;100.00;63096.41;5032714;28;20183;-58
2023/03/28 00:58:56;;;;;;;2.33;2.10;;;;;;;1.61;100.00;63085.56;5032694;28;20257;-57
2023/03/28 01:01:22;;;;;;;3.27;2.23;;;;;;;1.56;100.00;63082.59;5032629;28;20190;-57
2023/03/28 01:04:01;;;;;;;3.70;3.20;;;;;;;1.62;100.00;63086.63;5040657;22;20201;-58
2023/03/28 01:06:31;;;;;;;2.83;2.40;;;;;;;1.59;100.00;63082.84;5011788;28;20249;-56
2023/03/28 01:08:59;;;;;;;2.87;2.67;;;;;;;1.48;100.00;63073.94;5012903;28;20305;-56
2023/03/28 01:11:26;;;;;;;2.50;2.30;;;;;;;1.42;100.00;63066.88;5012744;28;20187;-56
2023/03/28 01:13:53;;;;;;;2.53;2.30;;;;;;;1.36;100.00;63058.44;5012823;28;20219;-54
2023/03/28 01:16:20;;;;;;;6.13;4.27;;;;;;;1.33;100.00;63055.19;5012679;28;20183;-54
2023/03/28 01:18:50;;;;;;;3.30;3.00;;;;;;;1.37;100.00;63059.53;5012310;28;20244;-57
2023/03/28 01:21:30;;;;;;;3.40;2.50;;;;;;;1.33;100.00;63055.19;5012585;28;20210;-53
2023/03/28 01:24:10;;;;;;;2.53;2.33;;;;;;;1.38;100.00;63063.09;5012482;28;20301;-52
2023/03/28 01:26:50;;;;;;;1.87;1.77;;;;;;;1.30;99.69;63049.47;5012398;28;20276;-56
2023/03/28 01:29:22;;;;;;;2.43;2.23;;;;;;;1.29;99.12;63050.31;5012416;28;20273;-57
2023/03/28 01:32:14;;;;;;;2.00;1.80;;;;;;;1.26;99.21;63047.06;5012389;28;20179;-57
2023/03/28 01:34:49;;;;;;;2.10;1.90;;;;;;;1.22;99.95;63045.75;5012360;28;20276;-57
2023/03/28 01:37:22;;;;;;;2.97;2.10;;;;;;;1.31;100.00;63053.03;5012218;28;20286;-58
2023/03/28 01:40:16;;;;;;;3.20;2.90;;;;;;;1.25;99.51;63049.00;5012583;28;20220;-53
2023/03/28 01:43:13;;;;;;;3.40;2.60;;;;;;;1.26;98.90;63047.59;5011862;28;20866;-53
2023/03/28 01:45:54;;;;;;;3.63;2.40;;;;;;;1.28;98.56;63049.22;5021749;22;20321;-54
2023/03/28 01:48:37;;;;;;;2.07;1.97;;;;;;;1.13;98.15;63033.50;5031570;28;20176;-51
2023/03/28 01:51:29;;;;;;;4.97;2.13;;;;;;;1.09;97.24;63029.16;5012049;28;20237;-52
2023/03/28 01:54:16;;;;;;;3.77;2.90;;;;;;;1.03;98.21;63022.66;5011916;28;20293;-52
2023/03/28 01:56:50;;;;;;;3.60;2.33;;;;;;;1.01;98.56;63020.50;4994131;28;20186;-53
2023/03/28 01:59:22;;;;;;;3.30;2.27;;;;;;;0.77;98.68;62996.97;5011863;28;20226;-52
2023/03/28 02:01:51;;;;;;;2.40;2.20;;;;;;;1.07;97.62;63029.47;5011746;28;20187;-52
2023/03/28 02:04:19;;;;;;;3.03;2.70;;;;;;;1.09;98.53;63029.16;5011683;28;20301;-53
2023/03/28 02:06:48;;;;;;;2.73;2.53;;;;;;;1.06;98.38;63027.88;4993882;28;20624;-53
2023/03/28 02:09:16;;;;;;;3.03;2.83;;;;;;;1.07;98.44;63027.00;5011438;28;20619;-52
2023/03/28 02:11:42;;;;;;;3.00;2.63;;;;;;;1.05;98.47;63027.31;5011510;28;20191;-54
2023/03/28 02:14:17;;;;;;;2.43;2.23;;;;;;;0.98;98.18;63019.75;5011682;28;20309;-52
2023/03/28 02:16:45;;;;;;;2.77;2.47;;;;;;;1.01;98.72;63022.97;5011741;28;20657;-53
2023/03/28 02:19:12;;;;;;;3.07;2.87;;;;;;;1.06;98.49;63025.38;5011521;28;20273;-54
2023/03/28 02:21:57;;;;;;;3.03;2.83;;;;;;;0.96;98.29;63015.09;5011394;28;20641;-54
2023/03/28 02:24:24;;;;;;;1.83;1.70;;;;;;;0.98;97.86;63017.25;5011437;28;20264;-53
2023/03/28 02:26:50;;;;;;;5.63;2.80;;;;;;;0.87;98.14;63007.81;5011295;28;20183;-55
2023/03/28 02:29:16;;;;;;;7.87;2.80;;;;;;;1.04;98.62;63021.28;5010448;28;20207;-52
2023/03/28 02:31:42;;;;;;;2.60;2.27;;;;;;;1.02;98.07;63021.59;5011126;28;20186;-53
2023/03/28 02:34:08;;;;;;;2.73;2.53;;;;;;;1.08;98.95;63027.56;5011155;28;20206;-52
2023/03/28 02:37:12;;;;;;;3.27;2.80;;;;;;;1.13;99.78;63033.50;5011105;28;20191;-53
2023/03/28 02:39:47;;;;;;;2.50;2.30;;;;;;;0.83;98.49;63001.56;5010840;28;20712;-59
2023/03/28 02:42:39;;;;;;;3.87;2.67;;;;;;;1.04;97.95;63023.75;5010950;28;20190;-60
2023/03/28 02:45:19;;;;;;;3.10;1.70;;;;;;;1.05;97.64;63027.31;4993444;28;20215;-54
2023/03/28 02:48:17;;;;;;;2.93;2.37;;;;;;;1.08;97.53;63028.09;5011039;28;20194;-52
2023/03/28 02:51:09;;;;;;;4.60;2.47;;;;;;;1.07;97.61;63028.97;4993301;28;20757;-54
2023/03/28 02:53:43;;;;;;;3.20;2.60;;;;;;;1.07;98.05;63027.00;5010819;28;20701;-53
2023/03/28 02:56:28;;;;;;;2.70;2.50;;;;;;;1.06;98.23;63027.88;5010915;28;20196;-54
2023/03/28 02:59:03;;;;;;;2.30;2.10;;;;;;;1.03;97.80;63019.66;5011089;28;20719;-52
2023/03/28 03:01:29;;;;;;;2.20;1.97;;;;;;;1.06;97.07;63028.41;4993294;28;20570;-54
2023/03/28 03:03:55;;;;;;;4.17;2.10;;;;;;;1.14;97.14;63034.06;5010951;28;20215;-53
2023/03/28 03:06:21;;;;;;;3.07;2.50;;;;;;;1.13;97.85;63038.47;5010652;28;20268;-53
2023/03/28 03:08:47;;;;;;;4.43;2.07;;;;;;;1.20;96.65;63040.56;4993096;28;20245;-54
2023/03/28 03:11:12;;;;;;;7.70;2.07;;;;;;;1.26;95.08;63047.06;5010865;28;20183;-52
2023/03/28 03:13:38;;;;;;;2.00;1.90;;;;;;;1.32;95.65;63056.59;5010494;28;20187;-52
2023/03/28 03:16:04;;;;;;;1.80;1.70;;;;;;;1.39;94.86;63061.72;5011116;28;20210;-55
2023/03/28 03:18:31;;;;;;;2.33;2.13;;;;;;;1.16;95.93;63039.25;5010597;28;20278;-52
2023/03/28 03:20:57;;;;;;;2.00;1.63;;;;;;;1.09;95.28;63029.16;5010337;28;20302;-52
2023/03/28 03:23:22;;;;;;;4.63;1.73;;;;;;;1.13;95.01;63032.97;5010465;28;20179;-54
2023/03/28 03:25:50;;;;;;;2.33;1.97;;;;;;;1.10;94.71;63032.75;5010403;28;20234;-52
2023/03/28 03:28:16;;;;;;;2.20;2.00;;;;;;;1.08;95.20;63028.09;5010649;28;20233;-54
2023/03/28 03:30:42;;;;;;;6.23;1.80;;;;;;;0.99;93.82;63018.34;5010566;28;20214;-52
2023/03/28 03:33:09;;;;;;;2.37;2.10;;;;;;;0.90;93.70;63008.06;5010416;28;20194;-53
2023/03/28 03:35:35;;;;;;;1.53;1.33;;;;;;;0.92;92.34;63010.22;5010714;28;20215;-52
2023/03/28 03:38:01;;;;;;;1.37;1.27;;;;;;;0.85;91.00;63003.16;5010546;28;20183;-55
2023/03/28 03:40:27;;;;;;;1.60;1.50;;;;;;;0.83;91.46;63001.00;5010303;28;20290;-54
2023/03/28 03:42:52;;;;;;;3.30;1.40;;;;;;;0.85;90.61;63003.16;4996089;28;20688;-53
2023/03/28 03:45:18;;;;;;;2.00;1.23;;;;;;;0.78;90.61;62993.66;5013858;28;20361;-60
2023/03/28 03:47:44;;;;;;;1.53;1.40;;;;;;;0.86;90.87;63006.75;5013680;28;20184;-54
2023/03/28 03:50:10;;;;;;;1.03;0.93;;;;;;;0.89;89.50;63007.50;5013812;28;20669;-54
2023/03/28 03:52:36;;;;;;;3.97;1.90;;;;;;;0.79;90.12;62999.69;5013486;28;20695;-54
2023/03/28 03:55:01;;;;;;;1.53;1.40;;;;;;;0.78;90.19;62998.63;5013620;28;20305;-53
2023/03/28 03:57:27;;;;;;;0.93;0.93;;;;;;;0.63;89.96;62981.81;4995879;28;20197;-54
2023/03/28 03:59:53;;;;;;;1.10;1.10;;;;;;;0.80;89.83;63000.25;5013662;28;20229;-55
2023/03/28 04:02:18;;;;;;;3.37;1.27;;;;;;;0.81;88.61;62998.84;5013537;28;20692;-54
2023/03/28 04:04:44;;;;;;;1.80;1.20;;;;;;;0.82;87.07;62999.94;5013260;28;20267;-55
2023/03/28 04:07:11;;;;;;;0.87;0.87;;;;;;;0.82;87.34;63000.47;5013871;28;20191;-54
2023/03/28 04:09:37;;;;;;;1.13;1.10;;;;;;;0.51;86.84;62971.28;5013770;28;20242;-54
2023/03/28 04:12:03;;;;;;;1.47;1.37;;;;;;;0.79;86.45;62996.66;5013351;28;20275;-54
2023/03/28 04:14:29;;;;;;;1.10;1.00;;;;;;;0.72;87.33;62992.13;5013228;28;20272;-56
2023/03/28 04:16:55;;;;;;;1.27;1.20;;;;;;;0.59;87.90;62975.00;5013190;28;20645;-54
2023/03/28 04:19:23;;;;;;;1.37;1.27;;;;;;;0.71;88.34;62988.53;5013227;28;20226;-54
2023/03/28 04:21:51;;;;;;;1.60;1.43;;;;;;;0.72;88.86;62989.66;5013089;28;20201;-55
2023/03/28 04:24:23;;;;;;;2.77;1.43;;;;;;;0.73;89.53;62990.16;5013176;28;20219;-57
2023/03/28 04:26:49;;;;;;;2.43;1.50;;;;;;;0.74;89.39;62991.25;5013345;28;20183;-58
2023/03/28 04:29:16;;;;;;;1.50;1.40;;;;;;;0.58;89.93;62972.00;5013015;28;20215;-58
2023/03/28 04:31:48;;;;;;;2.17;1.53;;;;;;;0.68;90.36;62985.31;5013254;28;20225;-55
2023/03/28 04:34:14;;;;;;;1.60;1.50;;;;;;;0.79;90.98;62996.66;5013218;28;20224;-54
2023/03/28 04:36:40;;;;;;;1.90;1.40;;;;;;;0.72;90.38;62987.16;5013162;28;20667;-56
2023/03/28 04:39:07;;;;;;;1.67;1.50;;;;;;;0.82;90.49;62999.94;5013279;28;20246;-55
2023/03/28 04:41:33;;;;;;;1.80;1.70;;;;;;;0.87;89.79;63005.34;5013164;28;20186;-54
2023/03/28 04:43:59;;;;;;;2.37;1.43;;;;;;;0.81;90.40;63001.31;5012921;28;20215;-53
2023/03/28 04:46:24;;;;;;;1.70;1.60;;;;;;;0.90;88.97;63005.56;5013017;28;20207;-53
2023/03/28 04:48:51;;;;;;;2.47;2.10;;;;;;;0.92;87.24;63010.75;5013018;28;20187;-55
2023/03/28 04:51:16;;;;;;;2.23;1.70;;;;;;;0.78;85.31;62998.06;4995316;28;20191;-53
2023/03/28 04:53:42;;;;;;;3.17;2.83;;;;;;;0.93;85.79;63011.84;5012322;28;20202;-59
2023/03/28 04:56:07;;;;;;;2.87;2.23;;;;;;;1.00;83.21;63021.38;5012945;28;20220;-57
2023/03/28 04:58:33;;;;;;;5.07;2.10;;;;;;;0.80;79.05;62998.31;5012896;28;20565;-57
2023/03/28 05:01:02;;;;;;;3.70;2.83;;;;;;;0.85;80.42;63005.66;5012910;28;20183;-58
2023/03/28 05:03:28;;;;;;;3.23;2.93;;;;;;;0.76;79.67;62993.97;5012840;28;20269;-59
2023/03/28 05:05:54;;;;;;;2.90;2.60;;;;;;;0.77;80.95;62994.50;4995174;28;20298;-58
2023/03/28 05:08:22;;;;;;;8.07;3.17;;;;;;;0.73;79.97;62993.19;5012564;28;20726;-58
2023/03/28 05:10:49;;;;;;;8.00;4.27;;;;;;;0.69;80.71;62986.38;4995039;28;20215;-58
2023/03/28 05:13:15;;;;;;;4.43;3.70;;;;;;;0.49;80.98;62969.69;5012642;28;20230;-58
2023/03/28 05:15:41;;;;;;;3.37;3.07;;;;;;;0.55;80.77;62973.16;5012804;28;20218;-58
2023/03/28 05:18:06;;;;;;;3.20;2.83;;;;;;;0.47;80.92;62962.56;5012396;28;20202;-59
2023/03/28 05:20:32;;;;;;;6.50;4.90;;;;;;;0.68;81.90;62987.78;5012866;28;20621;-56
2023/03/28 05:22:58;;;;;;;9.03;3.97;;;;;;;0.66;81.70;62983.16;5012576;28;20206;-58
2023/03/28 05:25:24;;;;;;;6.37;3.80;;;;;;;0.69;81.45;62988.88;5012294;28;20223;-54
2023/03/28 05:27:50;;;;;;;4.53;4.00;;;;;;;0.76;82.27;62993.44;5012337;28;20575;-55
2023/03/28 05:30:16;;;;;;;4.40;4.00;;;;;;;0.83;81.91;63004.03;5012365;28;20211;-53
2023/03/28 05:32:42;;;;;;;5.10;4.30;;;;;;;0.80;82.06;62998.31;5012216;28;20688;-52
2023/03/28 05:35:10;;;;;;;5.20;4.40;;;;;;;0.93;82.29;63011.84;5012275;28;20207;-53
2023/03/28 05:37:36;;;;;;;4.87;4.13;;;;;;;0.78;81.42;62996.13;5012159;28;20183;-53
2023/03/28 05:40:06;;;;;;;5.90;4.17;;;;;;;0.72;82.31;62992.13;5012387;28;20579;-54
2023/03/28 05:42:32;;;;;;;5.23;4.03;;;;;;;0.69;81.54;62985.84;5012178;28;20225;-53
2023/03/28 05:44:58;;;;;;;5.33;4.10;;;;;;;0.67;82.18;62983.66;5012326;28;20219;-58
2023/03/28 05:47:23;;;;;;;7.90;4.60;;;;;;;0.74;81.65;62991.25;5012301;28;20617;-58
2023/03/28 05:49:49;;;;;;;4.97;4.33;;;;;;;0.61;81.93;62979.66;5010901;28;20222;-53
2023/03/28 05:52:15;;;;;;;9.97;3.97;;;;;;;0.71;81.82;62993.50;5012046;28;20222;-57
2023/03/28 05:54:40;;;;;;;4.53;3.57;;;;;;;0.71;80.96;62988.00;5012059;28;20218;-58
2023/03/28 05:57:06;;;;;;;5.13;4.00;;;;;;;0.72;80.66;62992.13;5011931;28;20190;-59
2023/03/28 05:59:31;;;;;;;4.70;3.60;;;;;;;0.83;81.15;63004.03;5011919;28;20210;-57
2023/03/28 06:01:57;;;;;;;5.93;4.00;;;;;;;0.80;81.58;62998.31;5011897;28;20734;-57
2023/03/28 06:04:24;;;;;;;5.23;4.43;;;;;;;0.83;81.47;62998.53;5010720;28;20552;-54
2023/03/28 06:06:50;;;;;;;8.53;4.00;;;;;;;0.74;80.23;62994.28;5011890;28;20218;-55
2023/03/28 06:09:16;;;;;;;5.10;3.33;;;;;;;0.73;79.72;62990.72;5011526;28;20218;-54
2023/03/28 06:11:42;;;;;;;5.70;3.83;;;;;;;0.70;80.31;62986.94;5011826;28;20205;-55
2023/03/28 06:14:09;;;;;;;4.27;3.87;;;;;;;0.88;80.58;63006.44;5011675;28;20260;-53
2023/03/28 06:16:35;;;;;;;5.77;3.40;;;;;;;0.71;78.77;62988.53;5011836;28;20182;-53
2023/03/28 06:19:00;;;;;;;4.10;3.70;;;;;;;0.68;80.10;62985.31;5011534;28;20206;-53
2023/03/28 06:21:26;;;;;;;4.60;3.60;;;;;;;0.70;81.01;62985.00;5011633;28;20190;-52
2023/03/28 06:23:51;;;;;;;4.47;4.07;;;;;;;0.77;81.75;62996.97;5011490;28;20219;-53
2023/03/28 06:26:18;;;;;;;5.50;4.20;;;;;;;0.81;80.64;62998.84;5011450;28;20207;-53
2023/03/28 06:28:43;;;;;;;3.73;3.37;;;;;;;0.71;80.34;62990.47;5011737;28;20186;-53
2023/03/28 06:31:12;;;;;;;5.63;4.30;;;;;;;0.75;81.14;62992.88;5011648;28;20187;-53
2023/03/28 06:33:40;;;;;;;8.93;4.33;;;;;;;0.72;81.85;62989.09;5011360;28;20194;-53
2023/03/28 06:36:09;;;;;;;5.20;3.97;;;;;;;0.93;82.09;63011.84;5011318;28;20198;-54
2023/03/28 06:38:35;;;;;;;5.43;4.00;;;;;;;0.93;80.28;63011.84;5011322;28;20191;-56
2023/03/28 06:41:01;;;;;;;4.17;3.60;;;;;;;0.96;78.67;63015.09;5011428;28;20195;-56
2023/03/28 06:43:27;;;;;;;3.80;3.23;;;;;;;0.91;75.08;63009.66;4993549;28;20198;-54
2023/03/28 06:45:52;;;;;;;4.23;3.73;;;;;;;1.07;75.70;63027.00;5011135;28;20218;-55
2023/03/28 06:48:18;;;;;;;4.20;3.80;;;;;;;1.05;73.44;63024.31;5011260;28;20218;-54
2023/03/28 06:50:49;;;;;;;3.53;3.23;;;;;;;1.09;73.46;63028.66;5011498;28;20236;-59
2023/03/28 06:53:17;;;;;;;3.87;3.47;;;;;;;1.14;74.08;63034.59;5011318;28;20725;-54
2023/03/28 06:55:43;;;;;;;6.27;3.33;;;;;;;0.91;74.05;63006.66;5011249;28;20211;-54
2023/03/28 06:58:08;;;;;;;3.10;2.80;;;;;;;0.84;74.36;63002.63;4993162;28;20193;-51
2023/03/28 07:00:34;;;;;;;3.40;3.10;;;;;;;0.99;75.16;63020.81;5011135;28;20238;-54
2023/03/28 07:03:00;;;;;;;3.57;3.10;;;;;;;1.14;75.37;63034.06;5011125;28;20221;-56
2023/03/28 07:05:25;;;;;;;4.33;3.63;;;;;;;1.06;75.88;63028.41;5011091;28;20218;-53
2023/03/28 07:07:51;;;;;;;4.43;3.67;;;;;;;1.12;75.82;63037.41;5011154;28;20260;-60
2023/03/28 07:10:17;;;;;;;4.63;3.70;;;;;;;1.08;76.52;63028.09;5011250;28;20249;-61
2023/03/28 07:12:42;;;;;;;3.90;3.57;;;;;;;0.89;77.05;63009.44;5010949;28;20222;-59
2023/03/28 07:15:08;;;;;;;5.83;4.03;;;;;;;0.86;77.45;63006.75;5011170;28;20206;-54
2023/03/28 07:17:33;;;;;;;4.83;3.50;;;;;;;0.83;79.01;63001.56;5014362;28;20703;-55
2023/03/28 07:20:00;;;;;;;4.53;3.87;;;;;;;0.88;77.66;63008.34;5014522;28;20301;-55
2023/03/28 07:22:26;;;;;;;6.13;4.27;;;;;;;1.03;77.96;63027.09;5014250;28;20679;-58
2023/03/28 07:24:51;;;;;;;4.30;3.87;;;;;;;1.13;77.41;63030.50;5014234;28;20215;-55
2023/03/28 07:27:16;;;;;;;4.27;3.77;;;;;;;1.12;74.64;63032.44;5014334;28;20191;-55
2023/03/28 07:29:42;;;;;;;5.00;3.93;;;;;;;1.09;74.04;63031.13;5014112;28;20210;-55
2023/03/28 07:32:07;;;;;;;3.87;2.77;;;;;;;1.08;72.42;63027.56;5014200;28;20240;-55
2023/03/28 07:34:33;;;;;;;4.23;2.80;;;;;;;0.91;72.10;63011.63;4996408;28;20739;-55
2023/03/28 07:36:58;;;;;;;3.77;3.33;;;;;;;0.97;71.96;63016.16;5014095;28;20183;-55
2023/03/28 07:39:24;;;;;;;4.57;3.13;;;;;;;0.98;72.01;63014.78;5014221;28;20780;-53
2023/03/28 07:41:49;;;;;;;4.77;3.67;;;;;;;1.16;71.48;63041.72;5014144;28;20190;-53
2023/03/28 07:44:15;;;;;;;3.50;3.20;;;;;;;1.25;71.30;63044.03;5014066;28;20206;-55
2023/03/28 07:46:47;;;;;;;3.83;3.37;;;;;;;1.32;71.13;63056.59;5013756;28;20213;-55
2023/03/28 07:49:14;;;;;;;3.83;3.37;;;;;;;1.40;70.31;63060.31;5013799;28;20211;-58
2023/03/28 07:51:40;;;;;;;4.03;2.80;;;;;;;1.26;69.89;63050.09;4996505;28;20199;-55
2023/03/28 07:54:08;;;;;;;4.60;3.53;;;;;;;1.20;70.92;63040.56;5013878;28;20229;-53
2023/03/28 07:56:34;;;;;;;4.47;3.63;;;;;;;1.36;70.41;63058.44;5013886;28;20195;-54
2023/03/28 07:59:00;;;;;;;3.03;2.73;;;;;;;1.15;69.42;63038.16;5013805;28;20584;-54
2023/03/28 08:01:26;;;;;;;3.43;3.03;;;;;;;1.02;70.06;63018.56;5013859;28;20277;-54
2023/03/28 08:03:51;;;;;;;4.20;3.33;;;;;;;1.18;70.71;63040.88;5013777;28;20245;-53
2023/03/28 08:06:17;;;;;;;3.93;3.53;;;;;;;1.15;70.39;63035.69;5013549;28;20670;-53
2023/03/28 08:08:42;;;;;;;4.63;3.80;;;;;;;1.10;70.67;63029.72;5013539;28;20198;-54
2023/03/28 08:11:10;;;;;;;7.03;3.43;;;;;;;1.17;70.69;63040.31;5013517;28;20187;-54
2023/03/28 08:13:36;;;;;;;8.30;3.70;;;;;;;1.28;70.64;63049.78;4996002;28;20179;-54
2023/03/28 08:16:01;;;;;;;9.07;4.13;;;;;;;1.34;71.50;63056.28;5013544;28;20194;-54
2023/03/28 08:18:27;;;;;;;5.33;3.23;;;;;;;1.32;72.97;63056.59;5013244;28;20190;-54
2023/03/28 08:21:00;;;;;;;4.27;3.00;;;;;;;1.29;73.84;63045.91;5013407;28;20211;-54
2023/03/28 08:23:27;;;;;;;4.67;3.50;;;;;;;1.05;74.53;63027.31;5013478;28;20579;-59
2023/03/28 08:26:06;;;;;;;3.27;2.97;;;;;;;1.17;75.61;63037.31;4995699;28;20305;-58
2023/03/28 08:28:34;;;;;;;3.47;3.13;;;;;;;1.19;76.75;63039.47;5012525;28;20186;-59
2023/03/28 08:31:00;;;;;;;13.57;3.63;;;;;;;1.19;77.68;63040.00;5013381;28;20183;-59
2023/03/28 08:33:27;;;;;;;3.27;2.70;;;;;;;1.43;79.11;63068.53;5013245;28;20579;-58
2023/03/28 08:35:54;;;;;;;3.07;2.77;;;;;;;1.45;76.98;63068.22;5013063;28;20252;-59
2023/03/28 08:38:20;;;;;;;4.07;3.50;;;;;;;1.46;77.42;63069.28;5012594;28;20266;-60
2023/03/28 08:41:08;;;;;;;3.83;2.93;;;;;;;1.42;75.94;63067.44;5012885;28;20302;-58
2023/03/28 08:43:34;;;;;;;4.53;3.10;;;;;;;1.49;75.63;63074.47;5013059;28;20272;-57
2023/03/28 08:46:00;;;;;;;3.13;2.80;;;;;;;1.43;73.65;63063.56;5013024;28;20696;-60
2023/03/28 08:48:33;;;;;;;7.80;2.97;;;;;;;1.59;74.57;63088.34;5012985;28;20198;-59
2023/03/28 08:51:10;;;;;;;6.60;4.17;;;;;;;1.81;73.14;63106.69;5012907;28;20202;-59
2023/03/28 08:53:44;;;;;;;5.87;3.53;;;;;;;1.45;75.37;63068.22;5012757;28;20669;-58
2023/03/28 08:56:14;;;;;;;4.97;3.17;;;;;;;1.28;75.25;63052.25;5012922;28;20206;-54
2023/03/28 08:59:02;;;;;;;4.57;3.10;;;;;;;1.38;75.00;63057.59;5012755;28;20187;-53
2023/03/28 09:01:31;;;;;;;10.37;3.33;;;;;;;1.47;72.28;63069.84;5012859;28;20203;-54
2023/03/28 09:03:58;;;;;;;6.43;2.33;;;;;;;1.41;70.09;63063.31;5012660;28;20211;-55
2023/03/28 09:06:27;;;;;;;3.37;3.07;;;;;;;1.56;68.93;63082.06;5012627;28;20223;-54
2023/03/28 09:09:11;;;;;;;4.00;3.00;;;;;;;1.61;69.25;63087.50;5012853;28;20250;-56
2023/03/28 09:11:53;;;;;;;2.93;2.53;;;;;;;1.48;70.16;63070.91;5012883;28;20687;-58
2023/03/28 09:14:28;;;;;;;4.07;2.80;;;;;;;1.74;70.97;63099.09;5012724;28;20234;-60
2023/03/28 09:17:08;;;;;;;3.23;2.93;;;;;;;1.70;69.25;63097.78;5012731;28;20190;-54
2023/03/28 09:19:42;;;;;;;4.87;2.80;;;;;;;1.86;69.03;63109.09;5012725;28;20320;-54
2023/03/28 09:22:26;;;;;;;3.50;3.20;;;;;;;1.82;70.17;63109.72;5012636;28;20191;-55
2023/03/28 09:25:01;;;;;;;4.60;2.90;;;;;;;1.97;72.38;63126.00;5012221;28;20592;-54
2023/03/28 09:27:42;;;;;;;3.50;3.20;;;;;;;1.64;73.27;63088.81;5012519;28;20202;-54
2023/03/28 09:30:14;;;;;;;3.47;3.10;;;;;;;1.20;77.76;63043.03;5012736;28;20249;-54
2023/03/28 09:32:40;;;;;;;7.33;3.23;;;;;;;1.43;78.62;63065.50;5012199;28;20209;-58
2023/03/28 09:35:27;;;;;;;3.50;3.00;;;;;;;1.51;76.55;63076.66;5011056;28;20693;-59
2023/03/28 09:37:58;;;;;;;4.27;3.50;;;;;;;1.58;75.10;63081.75;4995196;28;20299;-58
2023/03/28 09:40:28;;;;;;;5.80;4.13;;;;;;;1.74;73.78;63098.56;5011815;28;20254;-59
2023/03/28 09:42:56;;;;;;;6.20;3.93;;;;;;;1.69;74.61;63094.22;5012144;28;20281;-57
2023/03/28 09:45:34;;;;;;;4.67;3.60;;;;;;;1.83;73.59;63108.31;5011918;28;20245;-58
2023/03/28 09:48:00;;;;;;;5.33;3.60;;;;;;;1.81;73.91;63109.19;5011976;28;20190;-58
2023/03/28 09:50:26;;;;;;;3.93;3.53;;;;;;;1.66;75.34;63093.44;5012309;28;20267;-58
2023/03/28 09:52:54;;;;;;;4.00;3.20;;;;;;;1.59;75.35;63085.31;5012233;28;20190;-59
2023/03/28 09:55:22;;;;;;;4.90;3.07;;;;;;;1.68;76.00;63092.59;5012108;28;20218;-58
2023/03/28 09:58:11;;;;;;;4.47;2.97;;;;;;;1.77;73.61;63101.81;5012170;28;20198;-57
2023/03/28 10:00:42;;;;;;;4.17;3.23;;;;;;;1.72;74.70;63096.94;5003869;28;20234;-58
2023/03/28 10:03:33;;;;;;;3.20;2.60;;;;;;;1.74;76.49;63098.56;5011792;28;20278;-57
2023/03/28 10:06:17;;;;;;;4.70;3.60;;;;;;;1.63;76.07;63087.72;5011647;28;20226;-58
2023/03/28 10:08:43;;;;;;;5.07;3.20;;;;;;;1.70;73.52;63095.31;4994035;28;20219;-53
2023/03/28 10:11:16;;;;;;;3.17;2.87;;;;;;;1.90;71.65;63118.94;5011699;28;20195;-52
2023/03/28 10:13:46;;;;;;;5.30;3.20;;;;;;;1.78;69.31;63102.91;5012059;28;20202;-54
2023/03/28 10:16:14;;;;;;;2.80;2.60;;;;;;;1.97;66.67;63126.53;5011725;28;20195;-54
2023/03/28 10:18:41;;;;;;;3.17;2.87;;;;;;;2.32;65.15;63163.97;5011741;28;20199;-53
2023/03/28 10:21:11;;;;;;;5.40;2.87;;;;;;;2.59;63.82;63190.78;5011657;28;20210;-55
2023/03/28 10:23:40;;;;;;;3.10;2.57;;;;;;;2.76;61.86;63209.25;5011439;28;20665;-53
2023/03/28 10:26:08;;;;;;;6.40;2.87;;;;;;;2.78;62.55;63211.41;5011180;28;20214;-54
2023/03/28 10:28:35;;;;;;;3.63;3.10;;;;;;;2.64;61.18;63195.66;5011335;28;20649;-54
2023/03/28 10:31:03;;;;;;;3.90;2.70;;;;;;;2.33;62.90;63163.09;5011409;28;20183;-52
2023/03/28 10:33:39;;;;;;;4.03;2.90;;;;;;;2.30;63.09;63159.84;5011546;28;20194;-54
2023/03/28 10:36:09;;;;;;;3.13;2.63;;;;;;;2.43;62.99;63175.91;5011546;28;20275;-54
2023/03/28 10:38:42;;;;;;;2.20;2.00;;;;;;;2.39;62.58;63164.66;5011743;28;20214;-60
2023/03/28 10:41:11;;;;;;;5.17;2.50;;;;;;;2.39;62.04;63169.06;5011252;28;20194;-57
2023/03/28 10:43:38;;;;;;;3.70;2.77;;;;;;;2.80;63.15;63213.59;5011287;28;20194;-57
2023/03/28 10:46:11;;;;;;;3.93;3.13;;;;;;;3.13;62.50;63248.88;5011216;28;20218;-58
2023/03/28 10:48:38;;;;;;;3.97;3.37;;;;;;;3.41;61.08;63282.31;5011464;28;20677;-60
2023/03/28 10:51:07;;;;;;;3.00;2.47;;;;;;;2.81;63.59;63211.66;5010488;28;20190;-59
2023/03/28 10:53:57;;;;;;;4.63;2.70;;;;;;;2.65;63.35;63197.28;5010949;28;20191;-58
2023/03/28 10:56:33;;;;;;;3.40;2.50;;;;;;;2.34;62.70;63164.19;5011271;28;20190;-59
2023/03/28 10:59:22;;;;;;;4.30;2.43;;;;;;;2.30;63.73;63159.84;5011298;28;20218;-60
2023/03/28 11:02:06;;;;;;;2.57;2.17;;;;;;;2.14;64.06;63139.47;4981981;28;20272;-59
2023/03/28 11:05:13;;;;;;;3.10;2.50;;;;;;;2.93;63.70;63225.19;5011194;28;20225;-57
2023/03/28 11:07:56;;;;;;;5.37;2.87;;;;;;;3.56;62.21;63295.59;5011181;28;20329;-59
2023/03/28 11:10:40;;;;;;;2.73;2.10;;;;;;;3.99;60.53;63342.31;5010935;28;20222;-60
2023/03/28 11:13:27;;;;;;;3.27;2.30;;;;;;;3.38;60.05;63276.56;5010977;28;20262;-59
2023/03/28 11:16:14;;;;;;;2.60;2.23;;;;;;;3.22;62.23;63258.66;5010764;28;20696;-59
2023/03/28 11:18:53;;;;;;;2.77;2.23;;;;;;;3.63;57.81;63302.66;5010749;28;20281;-59
2023/03/28 11:21:38;;;;;;;3.93;2.57;;;;;;;3.92;56.64;63331.69;5010908;28;20192;-58
2023/03/28 11:24:11;;;;;;;3.73;2.40;;;;;;;4.38;55.28;63384.19;5010749;28;20301;-58
2023/03/28 11:27:07;;;;;;;3.13;2.77;;;;;;;3.82;55.29;63318.84;5010760;28;20216;-59
2023/03/28 11:29:44;;;;;;;1.73;1.63;;;;;;;3.85;55.39;63326.56;5010910;28;20277;-60
2023/03/28 11:32:21;;;;;;;2.37;2.17;;;;;;;3.97;54.71;63342.66;5010751;28;20182;-62
2023/03/28 11:35:12;;;;;;;2.87;2.33;;;;;;;3.78;55.58;63321.44;5010748;28;20715;-58
2023/03/28 11:38:05;;;;;;;3.03;2.10;;;;;;;3.53;56.25;63289.84;5010690;28;20186;-58
2023/03/28 11:40:57;;;;;;;5.73;2.57;;;;;;;3.36;54.96;63273.84;5011085;28;20215;-60
2023/03/28 11:43:51;;;;;;;3.13;2.20;;;;;;;3.18;54.11;63257.34;4986473;28;20294;-58
2023/03/28 11:46:48;;;;;;;2.47;2.27;;;;;;;3.54;53.28;63293.41;5010427;28;20301;-58
2023/03/28 11:49:21;;;;;;;6.10;2.20;;;;;;;3.68;53.77;63308.06;4999021;28;20228;-57
2023/03/28 11:51:59;;;;;;;2.73;2.30;;;;;;;3.11;53.73;63246.72;5010460;28;20189;-59
2023/03/28 11:54:37;;;;;;;2.80;2.30;;;;;;;3.68;52.87;63306.13;5010495;28;20214;-59
2023/03/28 11:57:33;;;;;;;3.27;2.47;;;;;;;3.64;51.00;63303.72;5010571;28;20190;-59
2023/03/28 12:00:30;;;;;;;5.50;2.47;;;;;;;4.58;50.28;63407.88;4992860;28;20246;-57